Flight Track Log - Related Links

Times and Time Zones

All times are in EDT time to prevent confusion due to time zone crossing. See the N507HH flight status page for this flight to view local times or setup timezone preferences in your user account.

Time Position Orientation Groundspeed Altitude Reporting Facility
EDT Latitude Longitude Course Direction KTS MPH feet Rate Location/Type
Fri 03:45:44 PM 34.4775 -92.7456 243° Southwest 129 148 4,900  Level Memphis Center
Fri 03:46:44 PM 34.4458 -92.7672 209° Southwest 134 154 5,300 450 Climbing Memphis Center
Fri 03:47:44 PM 34.4139 -92.7942 215° Southwest 139 160 5,800 350 Climbing Memphis Center
Fri 03:48:44 PM 34.3781 -92.8133 204° Southwest 139 160 6,000 150 Climbing Memphis Center
Fri 03:49:44 PM 34.3403 -92.8297 200° South 139 160 6,100 250 Climbing Memphis Center
Fri 03:50:44 PM 34.2961 -92.8461 197° South 144 166 6,500 496 Climbing Memphis Center
Fri 03:51:45 PM 34.2625 -92.8603 199° South 144 166 7,100 600 Climbing Memphis Center
Fri 03:52:44 PM 34.2308 -92.8794 207° Southwest 139 160 7,700 605 Climbing Memphis Center
Fri 03:53:44 PM 34.2072 -92.9064 223° Southwest 129 148 8,300 550 Climbing Memphis Center
Fri 03:54:44 PM 34.1800 -92.9206 203° Southwest 123 142 8,800 500 Climbing Memphis Center
Fri 03:55:44 PM 34.1500 -92.9500 219° Southwest 122 140 9,300 650 Climbing Memphis Center
Fri 03:56:44 PM 34.1306 -92.9844 236° Southwest 127 146 10,100 550 Climbing Memphis Center
Fri 03:57:44 PM 34.1069 -93.0089 221° Southwest 127 146 10,400 400 Climbing Memphis Center
Fri 03:58:44 PM 34.0775 -93.0303 211° Southwest 122 140 10,900 555 Climbing Memphis Center
Fri 04:00:37 PM 34.0208 -93.0633 206° Southwest 127 146 12,000 590 Climbing Fort Worth Center
Fri 04:01:37 PM 34.0011 -93.0969 235° Southwest 127 146 12,600 500 Climbing Fort Worth Center
Fri 04:02:37 PM 33.9900 -93.1350 251° West 127 146 13,000 400 Climbing Fort Worth Center
Fri 04:03:37 PM 33.9808 -93.1781 256° West 132 152 13,400 450 Climbing Fort Worth Center
Fri 04:04:37 PM 33.9758 -93.2158 261° West 127 146 13,900 500 Climbing Fort Worth Center
Fri 04:05:37 PM 33.9708 -93.2536 261° West 127 146 14,400 500 Climbing Fort Worth Center
Fri 04:06:37 PM 33.9681 -93.2914 265° West 127 146 14,900 450 Climbing Fort Worth Center
Fri 04:07:37 PM 33.9631 -93.3292 261° West 127 146 15,300 350 Climbing Fort Worth Center
Fri 04:08:37 PM 33.9539 -93.3672 254° West 122 140 15,600 300 Climbing Fort Worth Center
Fri 04:09:37 PM 33.9403 -93.4003 244° Southwest 122 140 15,900 149 Climbing Fort Worth Center
Fri 04:10:38 PM 33.9225 -93.4336 237° Southwest 122 140 15,900  Level Fort Worth Center
Fri 04:11:37 PM 33.8878 -93.4578 210° Southwest 127 146 15,900  Level Fort Worth Center
Fri 04:12:37 PM 33.8508 -93.4794 206° Southwest 140 161 15,900  Level Fort Worth Center
Fri 04:13:38 PM 33.8161 -93.5011 207° Southwest 146 168 15,900 50 Level Fort Worth Center
Fri 04:14:37 PM 33.7792 -93.5228 206° Southwest 151 174 16,000  Climbing Fort Worth Center
Fri 04:15:37 PM 33.7403 -93.5444 205° Southwest 156 180 15,900  Descending Fort Worth Center
Fri 04:16:38 PM 33.7014 -93.5661 205° Southwest 156 180 16,000 50 Climbing Fort Worth Center
Fri 04:17:37 PM 33.6644 -93.5878 206° Southwest 156 180 16,000 -50 Level Fort Worth Center
Fri 04:18:37 PM 33.6253 -93.6094 205° Southwest 156 180 15,900  Descending Fort Worth Center
Fri 04:19:38 PM 33.5950 -93.6381 218° Southwest 151 174 16,000 50 Climbing Fort Worth Center
Fri 04:20:37 PM 33.5606 -93.6719 219° Southwest 156 180 16,000 -50 Level Fort Worth Center
Fri 04:21:37 PM 33.5281 -93.7008 217° Southwest 156 180 15,900 -50 Descending Fort Worth Center
Fri 04:22:38 PM 33.4889 -93.7247 207° Southwest 151 174 15,900 50 Level Fort Worth Center
Fri 04:23:37 PM 33.4497 -93.7414 200° South 151 174 16,000  Climbing Fort Worth Center
Fri 04:24:37 PM 33.4047 -93.7706 208° Southwest 156 180 15,900  Descending Fort Worth Center
Fri 04:25:38 PM 33.3678 -93.7919 206° Southwest 156 180 16,000  Climbing Fort Worth Center
Fri 04:26:37 PM 33.3286 -93.8086 200° South 156 180 15,900 -50 Descending Fort Worth Center
Fri 04:27:37 PM 33.2917 -93.8300 206° Southwest 156 180 15,900 50 Level Fort Worth Center
Fri 04:28:37 PM 33.2547 -93.8514 206° Southwest 156 180 16,000 50 Climbing Fort Worth Center
Fri 04:29:37 PM 33.2158 -93.8753 207° Southwest 156 180 16,000 -50 Level Fort Worth Center
Fri 04:30:37 PM 33.1831 -93.9039 216° Southwest 149 171 15,900  Descending Fort Worth Center
Fri 04:31:37 PM 33.1506 -93.9300 214° Southwest 149 171 16,000 50 Climbing Fort Worth Center
Fri 04:32:37 PM 33.1178 -93.9561 214° Southwest 144 166 16,000  Level Fort Worth Center
Fri 04:33:37 PM 33.0831 -93.9822 212° Southwest 144 166 16,000  Level Fort Worth Center
Fri 04:34:37 PM 33.0436 -93.9936 194° South 144 166 16,000  Level Fort Worth Center
Fri 04:35:37 PM 33.0003 -94.0053 193° South 150 173 16,000 50 Level Fort Worth Center
Fri 04:36:37 PM 32.9567 -94.0142 190° South 156 180 16,100  Climbing Fort Worth Center
Fri 04:37:37 PM 32.9153 -94.0356 203° Southwest 161 185 16,000 -100 Descending Fort Worth Center
Fri 04:38:37 PM 32.8722 -94.0619 207° Southwest 166 191 15,900 -50 Descending Fort Worth Center
Fri 04:39:37 PM 32.8353 -94.0856 208° Southwest 171 197 15,900  Level Fort Worth Center
Fri 04:40:38 PM 32.8022 -94.1017 202° Southwest 171 197 15,900  Level Fort Worth Center
Fri 04:41:37 PM 32.7569 -94.1256 204° Southwest 171 197 15,900 50 Level Fort Worth Center
Fri 04:42:37 PM 32.7139 -94.1519 207° Southwest 171 197 16,000  Climbing Fort Worth Center
Fri 04:43:37 PM 32.6789 -94.1728 207° Southwest 166 191 15,900 -50 Descending Fort Worth Center
Fri 04:44:37 PM 32.6358 -94.1967 205° Southwest 166 191 15,900  Level Fort Worth Center
Fri 04:45:37 PM 32.5947 -94.2203 206° Southwest 161 185 15,900  Level Fort Worth Center
Fri 04:46:38 PM 32.5533 -94.2389 201° Southwest 161 185 15,900  Level Fort Worth Center
Fri 04:47:37 PM 32.5119 -94.2578 201° Southwest 161 185 15,900  Level Fort Worth Center
Fri 04:48:37 PM 32.4750 -94.2836 211° Southwest 161 185 15,900  Level Fort Worth Center
Fri 04:49:38 PM 32.4358 -94.3047 204° Southwest 161 185 15,900 50 Level Fort Worth Center
Fri 04:50:37 PM 32.3969 -94.3256 204° Southwest 156 180 16,000  Climbing Fort Worth Center
Fri 04:51:37 PM 32.3556 -94.3492 206° Southwest 156 180 15,900 -50 Descending Fort Worth Center
Fri 04:52:37 PM 32.3144 -94.3703 203° Southwest 156 180 15,900  Level Fort Worth Center
Fri 04:53:37 PM 32.2731 -94.3914 203° Southwest 156 180 15,900  Level Fort Worth Center
Fri 04:54:37 PM 32.2319 -94.4147 206° Southwest 163 188 15,900  Level Fort Worth Center
Fri 04:55:37 PM 32.1886 -94.4358 202° Southwest 163 188 15,900  Level Fort Worth Center
Fri 04:56:37 PM 32.1475 -94.4617 208° Southwest 169 194 15,900  Level Fort Worth Center
Fri 04:57:37 PM 32.1042 -94.4828 202° Southwest 169 194 15,900  Level Fort Worth Center
Fri 04:58:38 PM 32.0650 -94.5061 207° Southwest 169 194 15,900  Level Fort Worth Center
Fri 04:59:37 PM 32.0239 -94.5294 206° Southwest 169 194 15,900  Level Fort Worth Center
Fri 05:00:37 PM 31.9825 -94.5478 201° Southwest 169 194 15,900  Level Fort Worth Center
Fri 05:01:37 PM 31.9453 -94.5686 205° Southwest 169 194 15,900  Level Fort Worth Center
Fri 05:02:37 PM 31.9042 -94.5919 206° Southwest 169 194 15,900  Level Fort Worth Center
Fri 05:03:37 PM 31.8628 -94.6103 201° Southwest 169 194 15,900  Level Fort Worth Center
Fri 05:04:37 PM 31.8236 -94.6333 207° Southwest 169 194 15,900  Level Fort Worth Center
Fri 05:05:37 PM 31.7822 -94.6542 203° Southwest 169 194 15,900  Level Fort Worth Center
Fri 05:06:37 PM 31.7431 -94.6750 204° Southwest 169 194 15,900  Level Fort Worth Center
Fri 05:08:45 PM 31.6661 -94.7167 205° Southwest 152 175 15,900  Level Houston Center
Fri 05:09:47 PM 31.6183 -94.7408 203° Southwest 154 177 15,900  Level Houston Center
Fri 05:10:49 PM 31.5797 -94.7617 205° Southwest 153 176 15,900  Level Houston Center
Fri 05:11:51 PM 31.5411 -94.7822 204° Southwest 152 175 15,900  Level Houston Center
Fri 05:12:53 PM 31.5022 -94.8033 205° Southwest 155 178 15,900  Level Houston Center
Fri 05:13:55 PM 31.4633 -94.8242 205° Southwest 154 177 15,900  Level Houston Center
Fri 05:14:57 PM 31.4236 -94.8444 204° Southwest 155 178 15,900  Level Houston Center
Fri 05:15:59 PM 31.3767 -94.8700 205° Southwest 156 180 15,900  Level Houston Center
Fri 05:17:01 PM 31.3372 -94.8903 204° Southwest 156 180 15,900  Level Houston Center
Fri 05:18:03 PM 31.2986 -94.9114 205° Southwest 156 180 15,900  Level Houston Center
Fri 05:19:04 PM 31.2600 -94.9322 205° Southwest 154 177 15,900 -49 Level Houston Center
Fri 05:20:06 PM 31.2217 -94.9511 203° Southwest 152 175 15,800 -484 Descending Houston Center
Fri 05:21:08 PM 31.1767 -94.9803 209° Southwest 154 177 14,900 -823 Descending Houston Center
Fri 05:22:10 PM 31.1358 -95.0092 211° Southwest 171 197 14,100 -919 Descending Houston Center
Fri 05:23:12 PM 31.0825 -95.0247 194° South 193 222 13,000 -968 Descending Houston Center
Fri 05:24:14 PM 31.0294 -95.0456 199° South 200 230 12,100 -919 Descending Houston Center
Fri 05:25:16 PM 30.9800 -95.0700 203° Southwest 195 224 11,100 -919 Descending Houston Center
Fri 05:26:18 PM 30.9342 -95.1019 211° Southwest 192 221 10,200 -968 Descending Houston Center
Fri 05:27:20 PM 30.8803 -95.1358 208° Southwest 186 214 9,100 -955 Descending Houston Center
Fri 05:27:46 PM 30.8611 -95.1439 200° South 185 213 8,800 -774 Descending Houston Center
Fri 05:28:22 PM 30.8322 -95.1569 201° Southwest 185 213 8,300 -873 Descending Houston Center
Fri 05:28:41 PM 30.8167 -95.1639 201° Southwest 187 215 8,000 -871 Descending Houston Center
Fri 05:29:24 PM 30.7844 -95.1800 203° Southwest 186 214 7,400 -821 Descending Houston Center
Fri 05:30:38 PM 30.7244 -95.2117 204° Southwest 190 219 6,400 -844 Descending Houston Center
Fri 05:31:39 PM 30.6744 -95.2397 206° Southwest 186 214 5,500 -750 Descending Houston Center
Fri 05:32:30 PM 30.6433 -95.2567 205° Southwest 184 212 5,000 -448 Descending Houston Center
Fri 05:32:46 PM 30.6244 -95.2653 201° Southwest 179 206 5,000  Level Houston Center
Fri 05:33:32 PM 30.5936 -95.2825 206° Southwest 169 194 5,000  Level Houston Center
Fri 05:34:34 PM 30.5544 -95.3008 202° Southwest 155 178 5,000 -194 Level Houston Center
Fri 05:35:36 PM 30.5117 -95.3208 202° Southwest 161 185 4,600 -484 Descending Houston Center
Fri 05:36:38 PM 30.4697 -95.3528 213° Southwest 174 200 4,000 -629 Descending Houston Center
Fri 05:37:40 PM 30.4283 -95.3914 219° Southwest 187 215 3,300 -512 Descending Houston Center
Fri 05:38:47 PM 30.3722 -95.4244 207° Southwest 185 213 2,900 -194 Descending Houston Center
Fri 05:39:44 PM 30.3361 -95.4431 204° Southwest 169 194 2,900 -151 Level Houston Center
Fri 05:40:46 PM 30.2967 -95.4653 206° Southwest 160 184 2,600 -472 Descending Houston Center
Fri 05:41:51 PM 30.2436 -95.4883 201° Southwest 186 214 1,900 -435 Descending Houston Center
Fri 05:42:50 PM 30.2028 -95.5031 197° South 176 203 1,700 -248 Descending Houston Center
Fri 05:43:52 PM 30.1511 -95.5300 204° Southwest 173 199 1,400 -242 Descending Houston Center
Fri 05:44:54 PM 30.1119 -95.5578 212° Southwest 169 194 1,200 -242 Descending Houston Center
Fri 05:45:56 PM 30.0772 -95.5572 179° South 160 184 900 -290 Descending Houston Center
Fri 05:47:00 PM 30.0618 -95.5528 203° Southwest  Level Estimated
Fri 05:54:00 PM 30.0618 -95.5528 203° Southwest  Level Estimated

Login

Don't have an account? Register now (free) for customized features, flight alerts, and more!